Viewpointe Walnut Grove Tower

*Note: All times are displayed in the local standard time of the station location.
**Rain - Equipment is designed to accurately record liquid precipitation; under conditions when precipitation is not in liquid form, the data displayed may not properly reflect rainfall values.

Date Max Temp
(°C)
Min Temp
(°C)
Avg Temp
(°C)
Rain (mm) Avg RH (%)
Sun, Aug 18, 2019 26.3 19.4 23.4 - 85.5
Sat, Aug 17, 2019 29.7 20.3 24.4 - 82.5
Fri, Aug 16, 2019 27.6 17.2 21.5 - 79.8
Thu, Aug 15, 2019 26.7 16.4 21.2 - 80.8
Wed, Aug 14, 2019 27.0 16.8 21.4 - 72.8
Tue, Aug 13, 2019 27.5 19.1 22.9 - 86.8
Mon, Aug 12, 2019 29.6 22.1 24.4 - 74.5
DateTime Avg Temp (°C) Rain (mm) RH (%)
Mon, Aug 19, 2019 14:00 25.3 - 74.9
Mon, Aug 19, 2019 13:00 23.9 - 80.1
Mon, Aug 19, 2019 12:00 22.6 - 85.6
Mon, Aug 19, 2019 11:00 22.4 - 86.7
Mon, Aug 19, 2019 10:00 21.8 - 87.7
Mon, Aug 19, 2019 09:00 21.3 - 90.7
Mon, Aug 19, 2019 08:00 20.7 - 95.8
Mon, Aug 19, 2019 07:00 19.8 - 97.0
Mon, Aug 19, 2019 06:00 18.5 - 97.2
Mon, Aug 19, 2019 05:00 19.2 - 96.9
Mon, Aug 19, 2019 04:00 19.9 - 97.4
Mon, Aug 19, 2019 03:00 20.4 - 97.6
Mon, Aug 19, 2019 02:00 20.9 - 98.1
Mon, Aug 19, 2019 01:00 21.1 - 98.1
Mon, Aug 19, 2019 00:00 20.1 - 98.1
Sun, Aug 18, 2019 23:00 19.8 - 97.8
Sun, Aug 18, 2019 22:00 22.0 - 89.6
Sun, Aug 18, 2019 21:00 23.6 - 91.8
Sun, Aug 18, 2019 20:00 24.3 - 82.9
Sun, Aug 18, 2019 19:00 24.6 - 78.7
Sun, Aug 18, 2019 18:00 24.0 - 82.2
Sun, Aug 18, 2019 17:00 23.5 - 84.2
Sun, Aug 18, 2019 16:00 21.5 - 96.5
Sun, Aug 18, 2019 15:00 20.7 - 96.7
Sun, Aug 18, 2019 14:00 25.8 - 74.4
Sun, Aug 18, 2019 13:00 25.8 - 72.2
Sun, Aug 18, 2019 12:00 24.9 - 78.3
Sun, Aug 18, 2019 11:00 23.9 - 80.9
Sun, Aug 18, 2019 10:00 23.6 - 82.6
Sun, Aug 18, 2019 09:00 23.5 - 84.8
Sun, Aug 18, 2019 08:00 23.4 - 85.4
Sun, Aug 18, 2019 07:00 23.4 - 86.1
Sun, Aug 18, 2019 06:00 23.4 - 84.2
Sun, Aug 18, 2019 05:00 23.4 - 81.4
Sun, Aug 18, 2019 04:00 23.6 - 85.7
Sun, Aug 18, 2019 03:00 24.2 - 84.2
Sun, Aug 18, 2019 02:00 24.6 - 83.7
Sun, Aug 18, 2019 01:00 23.9 - 90.9
Sun, Aug 18, 2019 00:00 22.9 - 94.4
Sat, Aug 17, 2019 23:00 23.6 - 92.3
Sat, Aug 17, 2019 22:00 23.7 - 89.6
Sat, Aug 17, 2019 21:00 24.2 - 84.8
Sat, Aug 17, 2019 20:00 25.1 - 82.2
Sat, Aug 17, 2019 19:00 28.0 - 70.1
Sat, Aug 17, 2019 18:00 28.5 - 68.4
Sat, Aug 17, 2019 17:00 28.8 - 67.7
Sat, Aug 17, 2019 16:00 28.2 - 68.4
Sat, Aug 17, 2019 15:00 27.2 - 72.5


asterix Register now to access more data! asterix